WetterOnline ( https://www.wetteronline.de )

Wetter aktuell Sankt Peter-Ording

Aktuelles Wetter: St. Peter-Ording (11m)

6-stündlich | Neueste Meldungen
Ortszeit Temperatur Wetter
Sa, 13.07. 14:00 18.9° C bewölkt
Sa, 13.07. 8:00 15.8° C bewölkt
Sa, 13.07. 2:00 16.5° C bedeckt
Fr, 12.07. 20:00 17.2° C starker Regen
Fr, 12.07. 14:00 19.8° C bewölkt
Fr, 12.07. 8:00 16.2° C bedeckt
Fr, 12.07. 2:00 16.1° C bewölkt
Do, 11.07. 20:00 18.2° C bewölkt
Ortszeit Temperatur Wetter
Sa, 13.07. 17:30 16.5° C leichter Regen
Sa, 13.07. 17:20 16.5° C leichter Regen
Sa, 13.07. 17:10 16.3° C leichter Regen
Sa, 13.07. 17:00 17.0° C leichter Regen
Sa, 13.07. 16:50 17.0° C leichter Regen
Sa, 13.07. 16:40 17.3° C bewölkt
Sa, 13.07. 16:30 16.9° C Regen
Sa, 13.07. 16:00 18.0° C bedeckt
Sa, 13.07. 15:30 18.2° C wolkig
Sa, 13.07. 15:00 17.9° C bewölkt
Sa, 13.07. 14:30 19.2° C leicht bewölkt
Ortszeit Relative Feuchte Sichtweite
Sa, 13.07. 14:00 72% 60 km
Sa, 13.07. 8:00 95% 20 km
Sa, 13.07. 2:00 95% 18 km
Fr, 12.07. 20:00 98% 3.1 km
Fr, 12.07. 14:00 68% 45 km
Fr, 12.07. 8:00 72% 45 km
Fr, 12.07. 2:00 78% 50 km
Do, 11.07. 20:00 76% 60 km
Ortszeit Relative Feuchte Sichtweite
Sa, 13.07. 17:30 93% 35 km
Sa, 13.07. 17:20 93% -
Sa, 13.07. 17:10 95% -
Sa, 13.07. 17:00 89% 12 km
Sa, 13.07. 16:50 89% -
Sa, 13.07. 16:40 86% -
Sa, 13.07. 16:30 89% 5.0 km
Sa, 13.07. 16:00 77% 55 km
Sa, 13.07. 15:30 78% 45 km
Sa, 13.07. 15:00 77% >70 km
Sa, 13.07. 14:30 72% 55 km
Ortszeit Niederschlagsmenge Niederschlagsart
Sa, 13.07. 14:00 0.1 l/m2 in 6 Std. Regen
Sa, 13.07. 8:00 5 l/m2 in 12 Std. Regen
Sa, 13.07. 2:00 5 l/m2 in 6 Std. Regen
Fr, 12.07. 20:00 9 l/m2 in 12 Std. Regen
Fr, 12.07. 14:00 0.0 l/m2 in 6 Std. -
Fr, 12.07. 8:00 0.0 l/m2 in 12 Std. -
Fr, 12.07. 2:00 0.0 l/m2 in 6 Std. -
Do, 11.07. 20:00 0.0 l/m2 in 12 Std. -
Ortszeit Niederschlagsmenge Niederschlagsart
Sa, 13.07. 17:30 1.0 l/m2 in 30 Min -
Sa, 13.07. 17:20 keine Meldung -
Sa, 13.07. 17:10 keine Meldung -
Sa, 13.07. 17:00 0.1 l/m2 in 1 Std. Regen
Sa, 13.07. 16:50 keine Meldung -
Sa, 13.07. 16:40 keine Meldung -
Sa, 13.07. 16:30 0.1 l/m2 in 30 Min -
Sa, 13.07. 16:00 <0.05 l/m2 in 1 Std. Regen
Sa, 13.07. 15:30 <0.05 l/m2 in 30 Min Schneeregen
Sa, 13.07. 15:00 0.0 l/m2 in 1 Std. -
Sa, 13.07. 14:30 0.0 l/m2 in 30 Min -
Ortszeit Stärke Spitze Richtung
km/h Bft. km/h Grad Sektor
Sa, 13.07. 14:00 35 5 57 210° SW
Sa, 13.07. 8:00 43 6 61 220° SW
Sa, 13.07. 2:00 14 3 47 130° SO
Fr, 12.07. 20:00 25 4 40 40° NO
Fr, 12.07. 14:00 17 3 24 30° NO
Fr, 12.07. 8:00 7 2 25 280° W
Fr, 12.07. 2:00 11 2 29 270° W
Do, 11.07. 20:00 14 3 32 260° W
Ortszeit Stärke Spitze Richtung
km/h Bft. km/h Grad Sektor
Sa, 13.07. 17:30 18 3 36 230° SW
Sa, 13.07. 17:20 18 3 - 230° SW
Sa, 13.07. 17:10 17 3 - 210° SW
Sa, 13.07. 17:00 26 4 41 210° SW
Sa, 13.07. 16:50 26 4 - 210° SW
Sa, 13.07. 16:40 31 5 - 210° SW
Sa, 13.07. 16:30 20 4 41 230° SW
Sa, 13.07. 16:00 29 5 50 210° SW
Sa, 13.07. 15:30 32 5 50 210° SW
Sa, 13.07. 15:00 31 5 46 210° SW
Sa, 13.07. 14:30 30 5 46 210° SW
Ortszeit Untergrenze Bedeckung Gattung
total tief tief mittel hoch
Sa, 13.07. 14:00 480 m 7/8 7/8 - - -
Sa, 13.07. 8:00 180 m 7/8 7/8 - - -
Sa, 13.07. 2:00 270 m 8/8 8/8 - - -
Fr, 12.07. 20:00 150 m 8/8 8/8 - - -
Fr, 12.07. 14:00 810 m 8/8 5/8 - - -
Fr, 12.07. 8:00 690 m 8/8 8/8 - - -
Fr, 12.07. 2:00 630 m 7/8 7/8 - - -
Do, 11.07. 20:00 480 m 7/8 7/8 - - -
Ortszeit Bedeckungsgrad in Achtel und Wolkenuntergrenze
Sa, 13.07. 17:30 1(240m) 6(1800m) 7(2400m)
Sa, 13.07. 17:20 1(240m) 6(1800m) 7(2400m)
Sa, 13.07. 17:10 7
Sa, 13.07. 17:00 4(360m) 7(1110m) 7(1500m)
Sa, 13.07. 16:50 4(360m) 7(1110m) 7(1500m)
Sa, 13.07. 16:40 7
Sa, 13.07. 16:30 3(510m) 8(1500m) 8(2400m)
Sa, 13.07. 16:00 2(480m) 7(1260m) 8(1500m)
Sa, 13.07. 15:30 2(960m) 4(1800m) 5(2700m)
Sa, 13.07. 15:00 2(1200m) 6(2100m) 7(2400m)
Sa, 13.07. 14:30 2(1410m) 3(2400m)
Ortszeit Luftdruck NN (hPa) Tendenz (hPa in 3 Std.)
Sa, 13.07. 14:00 1008 + 0,7
Sa, 13.07. 8:00 1005 + 1,9
Sa, 13.07. 2:00 1004 - 0,3
Fr, 12.07. 20:00 1007 - 2,8
Fr, 12.07. 14:00 1013 - 2,2
Fr, 12.07. 8:00 1016 - 0,4
Fr, 12.07. 2:00 1017 + 0,3
Do, 11.07. 20:00 1017 0,0
Ortszeit Luftdruck NN (hPa) Tendenz (hPa in 3 Std.)
Sa, 13.07. 17:30 1009 + 1,0
Sa, 13.07. 17:20 1009 keine Meldung
Sa, 13.07. 17:10 1009 keine Meldung
Sa, 13.07. 17:00 1009 + 0,9
Sa, 13.07. 16:50 1009 keine Meldung
Sa, 13.07. 16:40 1009 keine Meldung
Sa, 13.07. 16:30 1009 + 0,9
Sa, 13.07. 16:00 1008 + 1,1
Sa, 13.07. 15:30 1008 + 0,9
Sa, 13.07. 15:00 1008 + 0,7
Sa, 13.07. 14:30 1008 + 0,5
Ortszeit Schneehöhe (cm)
Sa, 13.07. 14:00 0
Sa, 13.07. 8:00 0
Sa, 13.07. 2:00 0
Fr, 12.07. 20:00 0
Fr, 12.07. 14:00 0
Fr, 12.07. 8:00 0
Fr, 12.07. 2:00 0
Do, 11.07. 20:00 0
Ortszeit Schneehöhe (cm)
Sa, 13.07. 17:30 0
Sa, 13.07. 17:20 0
Sa, 13.07. 17:10 -
Sa, 13.07. 17:00 0
Sa, 13.07. 16:50 0
Sa, 13.07. 16:40 -
Sa, 13.07. 16:30 0
Sa, 13.07. 16:00 0
Sa, 13.07. 15:30 0
Sa, 13.07. 15:00 0
Sa, 13.07. 14:30 0
Link zu dieser Seite / Seite empfehlen

Das Wetter in ...